Texola, Oklahoma
Current Conditions -  °F | °C
As of 5:35 AM on Tuesday 21 Oct 2014 (Local Time) from KELK Reporting Station
Clear Clear  
Wind Chill: 59°   Ceiling: Unl
Heat Index: 59°   Visibility: 10mi
Dew Point: 59°   Wind: 3mph
Humidity: 100%   Direction: 180°S
Pressure: 30.11"   Gusts: NA
Location:  35.22°N, 99.99°W
Report Text: KELK 211035Z AUTO 18003KT 10SM CLR 15/15 A3011 RMK AO2
Loading
Personal Weather Stations






























Interactive Weather Map
Tropical Storm Tracking
New forecast layout! Learn more

10-Day Weather Forecast

Advertisements
Track Severe Weather on mobile